Terminal Aerodrome Forecast
Issued by NWS

Home | Current Version | Previous Version | Text Only | Print | Product List | Glossary On
Versions: 1 2 3 4 5 6 7 8 9 10 11 12 13 14 15 16 17
275
FTUS43 KDLH 231739
TAFHYR
TAF
KHYR 231739Z 2318/2418 29010G16KT P6SM BKN035
      TEMPO 2320/2324 -SHRA BKN045
     FM240000 30009KT P6SM BKN050
     FM241200 29008KT P6SM BKN035=

USA.gov is the U.S. government's official web portal to all federal, state and local government web resources and services.